createdAt,value
2018-01-15T00:00:34.840Z,99.90
2018-01-15T00:03:03.213Z,99.90
2018-01-15T00:05:31.560Z,99.90
2018-01-15T00:07:59.911Z,99.90
2018-01-15T00:10:28.279Z,99.90
2018-01-15T00:12:56.870Z,99.90
2018-01-15T00:15:25.211Z,99.90
2018-01-15T00:17:53.554Z,99.90
2018-01-15T00:20:21.928Z,99.90
2018-01-15T00:22:50.277Z,99.80
2018-01-15T00:25:18.628Z,99.50
2018-01-15T00:27:47.000Z,99.60
2018-01-15T00:30:16.124Z,99.60
2018-01-15T00:32:44.481Z,99.60
2018-01-15T00:35:12.926Z,99.50
2018-01-15T00:37:41.294Z,99.50
2018-01-15T00:40:09.673Z,99.50
2018-01-15T00:42:38.028Z,99.40
2018-01-15T00:45:06.390Z,99.30
2018-01-15T00:47:34.743Z,99.30
2018-01-15T00:50:03.927Z,99.20
2018-01-15T00:52:32.274Z,99.20
2018-01-15T00:55:00.626Z,99.30
2018-01-15T00:57:28.975Z,99.40
2018-01-15T00:59:58.109Z,99.70
2018-01-15T01:02:26.479Z,99.70
2018-01-15T01:04:54.930Z,99.90
2018-01-15T01:07:24.155Z,99.90
2018-01-15T01:09:52.494Z,99.90
2018-01-15T01:12:20.928Z,99.90
2018-01-15T01:14:49.303Z,99.90
2018-01-15T01:17:17.656Z,99.90
2018-01-15T01:19:46.771Z,99.90
2018-01-15T01:22:15.268Z,99.90
2018-01-15T01:24:43.629Z,99.90
2018-01-15T01:27:11.980Z,99.90
2018-01-15T01:29:40.347Z,99.90
2018-01-15T01:32:08.695Z,99.90
2018-01-15T01:34:37.051Z,99.90
2018-01-15T01:37:05.435Z,99.90
2018-01-15T01:39:33.816Z,99.90
2018-01-15T01:42:02.162Z,99.90
2018-01-15T01:44:31.273Z,99.90
2018-01-15T01:46:59.643Z,99.90
2018-01-15T01:49:27.990Z,99.90
2018-01-15T01:51:56.332Z,99.90
2018-01-15T01:54:24.682Z,99.90
2018-01-15T01:56:53.023Z,99.90
2018-01-15T01:59:21.375Z,99.90
2018-01-15T02:01:49.719Z,99.90
2018-01-15T02:04:18.131Z,99.90
2018-01-15T02:06:46.467Z,99.90
2018-01-15T02:09:15.586Z,99.90
2018-01-15T02:11:43.927Z,99.90
2018-01-15T02:14:13.130Z,99.90
2018-01-15T02:16:41.474Z,99.90
2018-01-15T02:19:09.820Z,99.90
2018-01-15T02:21:38.221Z,99.90
2018-01-15T02:24:06.554Z,99.90
2018-01-15T02:26:35.673Z,99.90
2018-01-15T02:29:04.064Z,99.90
2018-01-15T02:31:32.484Z,99.90
2018-01-15T02:34:00.933Z,99.90
2018-01-15T02:36:29.294Z,99.90
2018-01-15T02:38:57.689Z,99.90
2018-01-15T02:41:26.083Z,99.90
2018-01-15T02:43:54.418Z,99.90
2018-01-15T02:46:22.776Z,99.90
2018-01-15T02:48:51.931Z,99.90
2018-01-15T02:51:20.296Z,99.90
2018-01-15T02:53:48.640Z,99.90
2018-01-15T02:56:17.780Z,99.90
2018-01-15T02:58:46.145Z,99.90
2018-01-15T03:01:14.479Z,99.90
2018-01-15T03:03:42.837Z,99.90
2018-01-15T03:06:11.180Z,99.90
2018-01-15T03:11:14.263Z,99.90
2018-01-15T03:13:43.383Z,99.90
2018-01-15T03:16:11.758Z,99.90
2018-01-15T03:18:40.135Z,99.90
2018-01-15T03:21:08.518Z,99.90
2018-01-15T03:23:36.869Z,99.90
2018-01-15T03:26:05.995Z,99.90
2018-01-15T03:28:34.352Z,99.90
2018-01-15T03:31:03.589Z,99.90
2018-01-15T03:33:31.939Z,99.90
2018-01-15T03:36:00.279Z,99.90
2018-01-15T03:38:28.721Z,99.90
2018-01-15T03:40:57.063Z,99.90
2018-01-15T03:43:26.222Z,99.70
2018-01-15T03:45:54.581Z,99.70
2018-01-15T03:48:22.948Z,99.70
2018-01-15T03:50:51.344Z,99.40
2018-01-15T03:53:19.739Z,99.00
2018-01-15T03:55:48.104Z,99.30
2018-01-15T03:58:17.491Z,99.10
2018-01-15T04:00:45.831Z,99.00
2018-01-15T04:03:14.946Z,98.50
2018-01-15T04:05:43.351Z,98.50
2018-01-15T04:08:11.698Z,98.10
2018-01-15T04:10:40.045Z,97.50
2018-01-15T04:13:08.409Z,97.20
2018-01-15T04:15:36.759Z,96.80
2018-01-15T04:18:05.252Z,96.70
2018-01-15T04:20:33.601Z,96.70
2018-01-15T04:23:02.005Z,97.00
2018-01-15T04:25:30.351Z,96.50
2018-01-15T04:27:59.455Z,96.50
2018-01-15T04:30:28.644Z,96.70
2018-01-15T04:32:57.786Z,96.90
2018-01-15T04:35:26.146Z,96.90
2018-01-15T04:37:54.531Z,97.00
2018-01-15T04:40:22.887Z,97.00
2018-01-15T04:42:51.222Z,97.10
2018-01-15T04:45:19.566Z,97.30
2018-01-15T04:47:47.950Z,97.60
2018-01-15T04:50:16.287Z,97.60
2018-01-15T04:52:44.704Z,97.70
2018-01-15T04:55:13.206Z,97.90
2018-01-15T04:57:41.565Z,97.60
2018-01-15T05:00:10.003Z,97.50
2018-01-15T05:02:38.335Z,97.30
2018-01-15T05:05:06.691Z,97.30
2018-01-15T05:07:35.033Z,97.00
2018-01-15T05:10:03.417Z,97.10
2018-01-15T05:12:31.750Z,97.00
2018-01-15T05:15:00.246Z,96.70
2018-01-15T05:17:28.594Z,96.70
2018-01-15T05:19:56.913Z,96.60
2018-01-15T05:22:25.268Z,96.40
2018-01-15T05:24:53.634Z,96.10
2018-01-15T05:27:22.011Z,96.00
2018-01-15T05:29:50.357Z,95.90
2018-01-15T05:32:19.465Z,95.60
2018-01-15T05:34:48.605Z,95.40
2018-01-15T05:37:16.982Z,95.40
2018-01-15T05:39:45.327Z,95.20
2018-01-15T05:42:13.670Z,95.20
2018-01-15T05:44:42.111Z,95.20
2018-01-15T05:47:10.447Z,95.30
2018-01-15T05:49:38.847Z,95.30
2018-01-15T05:52:07.196Z,95.40
2018-01-15T05:54:35.528Z,95.70
2018-01-15T05:57:03.929Z,95.50
2018-01-15T05:59:32.272Z,95.50
2018-01-15T06:02:00.631Z,95.40
2018-01-15T06:04:29.046Z,95.60
2018-01-15T06:06:57.391Z,95.60
2018-01-15T06:09:25.795Z,95.60
2018-01-15T06:11:54.176Z,95.80
2018-01-15T06:14:22.718Z,95.70
2018-01-15T06:16:51.135Z,95.90
2018-01-15T06:19:19.492Z,96.10
2018-01-15T06:21:48.593Z,96.20
2018-01-15T06:24:17.755Z,96.20
2018-01-15T06:26:46.132Z,96.20
2018-01-15T06:29:14.471Z,96.50
2018-01-15T06:31:42.841Z,96.40
2018-01-15T06:34:11.175Z,96.50
2018-01-15T06:36:39.542Z,96.50
2018-01-15T06:39:07.914Z,96.70
2018-01-15T06:41:36.267Z,96.80
2018-01-15T06:44:04.602Z,97.10
2018-01-15T06:46:33.728Z,97.20
2018-01-15T06:49:02.070Z,97.10
2018-01-15T06:51:30.446Z,99.80
2018-01-15T06:53:58.854Z,99.70
2018-01-15T06:56:27.222Z,96.80
2018-01-15T06:58:56.320Z,96.10
2018-01-15T07:01:24.720Z,96.00
2018-01-15T07:03:53.058Z,96.20
2018-01-15T07:06:21.410Z,96.30
2018-01-15T07:08:49.740Z,96.40
2018-01-15T07:11:18.247Z,96.50
2018-01-15T07:13:46.637Z,96.70
2018-01-15T07:16:14.966Z,96.70
2018-01-15T07:18:43.330Z,96.80
2018-01-15T07:21:11.675Z,97.20
2018-01-15T07:23:40.026Z,96.90
2018-01-15T07:26:08.364Z,96.80
2018-01-15T07:28:36.738Z,96.60
2018-01-15T07:31:05.092Z,96.50
2018-01-15T07:33:33.424Z,96.50
2018-01-15T07:36:02.606Z,96.30
2018-01-15T07:38:30.946Z,96.30
2018-01-15T07:40:59.300Z,96.30
2018-01-15T07:43:27.630Z,96.30
2018-01-15T07:45:56.000Z,96.30
2018-01-15T07:48:24.352Z,96.10
2018-01-15T07:50:52.683Z,96.20
2018-01-15T07:53:21.799Z,96.20
2018-01-15T07:55:50.146Z,96.00
2018-01-15T07:58:18.491Z,96.00
2018-01-15T08:00:46.831Z,96.00
2018-01-15T08:03:15.349Z,95.90
2018-01-15T08:05:43.684Z,95.90
2018-01-15T08:08:12.787Z,95.80
2018-01-15T08:10:41.175Z,95.80
2018-01-15T08:13:09.577Z,95.80
2018-01-15T08:15:37.917Z,95.80
2018-01-15T08:18:06.254Z,95.70
2018-01-15T08:20:34.916Z,95.70
2018-01-15T08:23:03.269Z,95.80
2018-01-15T08:25:31.620Z,95.70
2018-01-15T08:28:00.090Z,95.80
2018-01-15T08:30:28.400Z,95.80
2018-01-15T08:32:56.742Z,95.90
2018-01-15T08:35:25.083Z,95.70
2018-01-15T08:37:53.428Z,95.60
2018-01-15T08:40:22.542Z,95.50
2018-01-15T08:42:51.655Z,95.70
2018-01-15T08:45:20.133Z,95.60
2018-01-15T08:47:48.481Z,95.60
2018-01-15T08:50:16.822Z,95.40
2018-01-15T08:52:45.162Z,95.30
2018-01-15T08:55:13.525Z,95.20
2018-01-15T08:57:42.631Z,95.30
2018-01-15T09:00:11.751Z,95.20
2018-01-15T09:02:40.096Z,95.20
2018-01-15T09:05:09.225Z,95.20
2018-01-15T09:07:37.572Z,95.60
2018-01-15T09:10:05.947Z,95.10
2018-01-15T09:12:35.089Z,95.10
2018-01-15T09:15:03.503Z,95.10
2018-01-15T09:17:31.769Z,95.10
2018-01-15T09:20:00.221Z,95.10
2018-01-15T09:22:28.551Z,95.00
2018-01-15T09:24:57.667Z,95.20
2018-01-15T09:27:26.010Z,95.10
2018-01-15T09:29:54.385Z,95.00
2018-01-15T09:32:22.735Z,95.00
2018-01-15T09:34:51.115Z,94.90
2018-01-15T09:37:19.552Z,94.90
2018-01-15T09:39:47.896Z,94.80
2018-01-15T09:42:16.342Z,94.60
2018-01-15T09:44:44.677Z,94.70
2018-01-15T09:47:13.810Z,94.50
2018-01-15T09:49:42.200Z,94.40
2018-01-15T09:52:10.540Z,94.30
2018-01-15T09:54:38.896Z,94.10
2018-01-15T09:57:07.348Z,94.40
2018-01-15T09:59:35.712Z,94.30
2018-01-15T10:02:04.104Z,94.50
2018-01-15T10:04:32.583Z,94.20
2018-01-15T10:07:00.906Z,94.00
2018-01-15T10:09:29.252Z,94.10
2018-01-15T10:11:57.785Z,94.00
2018-01-15T10:14:26.094Z,93.90
2018-01-15T10:16:54.457Z,94.00
2018-01-15T10:19:22.795Z,94.00
2018-01-15T10:21:51.317Z,93.90
2018-01-15T10:24:19.660Z,93.80
2018-01-15T10:26:48.299Z,93.70
2018-01-15T10:29:16.622Z,93.70
2018-01-15T10:31:44.958Z,93.80
2018-01-15T10:34:13.309Z,94.10
2018-01-15T10:36:41.640Z,94.20
2018-01-15T10:39:09.981Z,94.20
2018-01-15T10:41:38.324Z,94.30
2018-01-15T10:44:06.746Z,94.30
2018-01-15T10:46:35.108Z,94.50
2018-01-15T10:49:04.361Z,94.60
2018-01-15T10:51:32.791Z,94.60
2018-01-15T10:54:01.136Z,94.60
2018-01-15T10:56:29.506Z,94.50
2018-01-15T10:58:57.905Z,94.70
2018-01-15T11:01:27.032Z,94.90
2018-01-15T11:03:55.376Z,94.90
2018-01-15T11:06:23.790Z,94.80
2018-01-15T11:08:52.134Z,94.70
2018-01-15T11:11:20.548Z,94.70
2018-01-15T11:13:48.904Z,94.90
2018-01-15T11:16:18.013Z,94.70
2018-01-15T11:18:46.347Z,94.70
2018-01-15T11:21:14.689Z,94.70
2018-01-15T11:23:43.045Z,94.60
2018-01-15T11:26:11.415Z,94.70
2018-01-15T11:28:39.728Z,94.60
2018-01-15T11:31:08.089Z,94.60
2018-01-15T11:33:36.439Z,94.50
2018-01-15T11:36:04.915Z,94.50
2018-01-15T11:38:33.267Z,94.60
2018-01-15T11:41:01.619Z,94.50
2018-01-15T11:43:29.963Z,94.50
2018-01-15T11:45:59.064Z,94.30
2018-01-15T11:48:28.295Z,94.30
2018-01-15T11:50:56.627Z,94.30
2018-01-15T11:53:24.976Z,94.30
2018-01-15T11:55:53.323Z,94.40
2018-01-15T11:58:21.669Z,94.40
2018-01-15T12:00:50.789Z,94.80
2018-01-15T12:03:19.119Z,94.40
2018-01-15T12:05:47.496Z,94.40
2018-01-15T12:08:15.834Z,94.40
2018-01-15T12:10:44.379Z,94.40
2018-01-15T12:13:12.798Z,94.20
2018-01-15T12:15:41.135Z,94.20
2018-01-15T12:18:09.490Z,94.20
2018-01-15T12:20:37.846Z,94.20
2018-01-15T12:23:06.197Z,94.20
2018-01-15T12:25:34.546Z,94.20
2018-01-15T12:28:03.069Z,94.20
2018-01-15T12:30:31.398Z,94.30
2018-01-15T12:32:59.750Z,94.20
2018-01-15T12:35:28.324Z,94.20
2018-01-15T12:37:56.705Z,94.20
2018-01-15T12:40:25.080Z,94.30
2018-01-15T12:42:53.428Z,94.20
2018-01-15T12:45:22.699Z,94.20
2018-01-15T12:47:51.005Z,94.20
2018-01-15T12:50:20.133Z,94.50
2018-01-15T12:52:48.530Z,94.40
2018-01-15T12:55:16.920Z,94.40
2018-01-15T12:57:45.256Z,94.40
2018-01-15T13:00:13.594Z,94.50
2018-01-15T13:02:42.026Z,94.60
2018-01-15T13:05:10.370Z,94.50
2018-01-15T13:07:51.312Z,94.50
2018-01-15T13:10:19.831Z,94.50
2018-01-15T13:12:48.157Z,94.40
2018-01-15T13:15:16.620Z,94.50
2018-01-15T13:17:45.014Z,94.50
2018-01-15T13:20:13.344Z,94.70
2018-01-15T13:22:42.492Z,94.80
2018-01-15T13:25:10.828Z,94.80
2018-01-15T13:27:39.199Z,94.70
2018-01-15T13:30:07.711Z,94.70
2018-01-15T13:32:36.944Z,94.60
2018-01-15T13:35:05.383Z,94.50
2018-01-15T13:37:33.822Z,94.60
2018-01-15T13:40:02.280Z,94.90
2018-01-15T13:42:30.625Z,95.00
2018-01-15T13:44:58.990Z,95.20
2018-01-15T13:47:28.097Z,95.40
2018-01-15T13:49:56.830Z,95.40
2018-01-15T13:52:25.143Z,95.40
2018-01-15T13:54:54.289Z,95.50
2018-01-15T13:57:22.638Z,95.50
2018-01-15T13:59:50.988Z,95.60
2018-01-15T14:02:19.345Z,95.70
2018-01-15T14:04:47.796Z,95.70
2018-01-15T14:07:16.201Z,95.70
2018-01-15T14:09:44.561Z,95.60
2018-01-15T14:12:13.315Z,95.70
2018-01-15T14:14:42.422Z,95.70
2018-01-15T14:17:10.850Z,95.70
2018-01-15T14:19:39.188Z,95.80
2018-01-15T14:22:07.577Z,96.00
2018-01-15T14:24:36.136Z,96.10
2018-01-15T14:27:04.528Z,96.10
2018-01-15T14:29:32.868Z,96.20
2018-01-15T14:32:01.212Z,96.20
2018-01-15T14:34:29.671Z,96.10
2018-01-15T14:36:58.048Z,96.20
2018-01-15T14:39:26.389Z,96.20
2018-01-15T14:41:54.925Z,96.20
2018-01-15T14:44:23.243Z,96.20
2018-01-15T14:46:51.591Z,96.20
2018-01-15T14:49:19.931Z,96.10
2018-01-15T14:51:48.285Z,96.00
2018-01-15T14:54:16.634Z,96.10
2018-01-15T14:56:44.978Z,96.10
2018-01-15T14:59:13.355Z,96.30
2018-01-15T15:01:41.697Z,96.30
2018-01-15T15:04:10.608Z,96.40
2018-01-15T15:06:39.807Z,96.30
2018-01-15T15:09:08.976Z,96.30
2018-01-15T15:11:37.326Z,96.30
2018-01-15T15:14:05.697Z,96.30
2018-01-15T15:16:34.790Z,96.30
2018-01-15T15:19:03.200Z,96.40
2018-01-15T15:21:31.610Z,96.30
2018-01-15T15:24:00.741Z,96.20
2018-01-15T15:26:29.092Z,96.20
2018-01-15T15:28:58.228Z,96.40
2018-01-15T15:31:26.591Z,96.40
2018-01-15T15:33:54.953Z,96.50
2018-01-15T15:36:23.308Z,96.40
2018-01-15T15:38:51.632Z,96.30
2018-01-15T15:41:19.992Z,96.30
2018-01-15T15:43:49.095Z,96.30
2018-01-15T15:46:17.428Z,96.30
2018-01-15T15:48:45.782Z,96.30
2018-01-15T15:51:14.161Z,96.30
2018-01-15T15:53:42.520Z,96.70
2018-01-15T15:56:10.909Z,96.80
2018-01-15T15:58:39.259Z,96.50
2018-01-15T16:01:08.401Z,96.30
2018-01-15T16:03:36.856Z,96.30
2018-01-15T16:06:05.200Z,96.30
2018-01-15T16:08:34.324Z,96.30
2018-01-15T16:11:02.673Z,96.30
2018-01-15T16:13:31.818Z,96.50
2018-01-15T16:16:00.176Z,96.30
2018-01-15T16:18:28.514Z,96.40
2018-01-15T16:20:56.860Z,96.30
2018-01-15T16:23:25.204Z,96.40
2018-01-15T16:25:53.570Z,96.70
2018-01-15T16:28:22.683Z,96.40
2018-01-15T16:30:51.122Z,96.40
2018-01-15T16:33:19.559Z,96.50
2018-01-15T16:35:47.896Z,96.50
2018-01-15T16:38:16.316Z,96.60
2018-01-15T16:40:44.715Z,96.70
2018-01-15T16:43:13.805Z,96.80
2018-01-15T16:45:42.181Z,96.80
2018-01-15T16:48:10.581Z,97.00
2018-01-15T16:50:38.949Z,97.10
2018-01-15T16:53:07.282Z,97.10
2018-01-15T16:55:36.564Z,97.30
2018-01-15T16:58:05.025Z,97.30
2018-01-15T17:00:33.431Z,97.30
2018-01-15T17:03:01.860Z,97.30
2018-01-15T17:05:30.223Z,97.30
2018-01-15T17:07:58.589Z,97.30
2018-01-15T17:10:26.931Z,97.40
2018-01-15T17:12:55.281Z,97.40
2018-01-15T17:15:23.618Z,97.50
2018-01-15T17:17:52.760Z,97.20
2018-01-15T17:20:21.100Z,97.20
2018-01-15T17:22:49.456Z,97.20
2018-01-15T17:25:17.820Z,97.40
2018-01-15T17:27:46.170Z,97.80
2018-01-15T17:30:14.545Z,97.50
2018-01-15T17:32:42.889Z,97.70
2018-01-15T17:35:12.147Z,97.60
2018-01-15T17:37:40.485Z,97.80
2018-01-15T17:40:08.912Z,97.60
2018-01-15T17:42:37.279Z,97.60
2018-01-15T17:45:05.640Z,97.50
2018-01-15T17:47:34.113Z,97.50
2018-01-15T17:50:02.508Z,97.60
2018-01-15T17:52:30.893Z,97.60
2018-01-15T17:54:59.272Z,97.60
2018-01-15T17:57:27.607Z,97.80
2018-01-15T17:59:55.991Z,97.80
2018-01-15T18:02:24.339Z,98.10
2018-01-15T18:04:52.808Z,98.20
2018-01-15T18:07:21.161Z,98.20
2018-01-15T18:09:49.690Z,98.40
2018-01-15T18:12:18.135Z,98.60
2018-01-15T18:14:46.479Z,98.70
2018-01-15T18:17:14.903Z,98.70
2018-01-15T18:19:43.260Z,98.80
2018-01-15T18:22:11.604Z,98.90
2018-01-15T18:24:39.996Z,99.20
2018-01-15T18:27:08.442Z,99.30
2018-01-15T18:29:36.872Z,99.30
2018-01-15T18:32:05.208Z,99.40
2018-01-15T18:34:34.326Z,99.50
2018-01-15T18:37:02.659Z,99.40
2018-01-15T18:39:30.991Z,99.50
2018-01-15T18:41:59.359Z,99.50
2018-01-15T18:44:27.722Z,99.50
2018-01-15T18:46:56.833Z,99.50
2018-01-15T18:49:25.180Z,99.20
2018-01-15T18:51:53.526Z,99.10
2018-01-15T18:54:21.863Z,99.10
2018-01-15T18:56:51.102Z,98.80
2018-01-15T18:59:19.476Z,98.80
2018-01-15T19:01:48.136Z,98.90
2018-01-15T19:04:17.224Z,98.60
2018-01-15T19:06:46.327Z,98.70
2018-01-15T19:09:14.696Z,98.70
2018-01-15T19:11:43.810Z,98.70
2018-01-15T19:14:12.201Z,98.70
2018-01-15T19:16:40.514Z,98.70
2018-01-15T19:19:09.179Z,98.60
2018-01-15T19:21:37.643Z,98.60
2018-01-15T19:24:06.129Z,98.50
2018-01-15T19:26:34.556Z,98.60
2018-01-15T19:29:02.914Z,98.70
2018-01-15T19:31:31.272Z,98.90
2018-01-15T19:34:00.266Z,99.00
2018-01-15T19:36:37.201Z,98.90
2018-01-15T19:39:09.986Z,98.90
2018-01-15T19:41:41.041Z,99.10
2018-01-15T19:44:15.211Z,99.20
2018-01-15T19:46:49.269Z,99.60
2018-01-15T19:49:24.145Z,99.90
2018-01-15T19:51:58.461Z,99.90
2018-01-15T19:54:32.636Z,99.90
2018-01-15T19:57:07.748Z,99.90
2018-01-15T19:59:44.742Z,99.90
2018-01-15T20:02:19.026Z,99.90
2018-01-15T20:04:53.275Z,99.90
2018-01-15T20:07:28.058Z,99.90
2018-01-15T20:10:02.222Z,99.90
2018-01-15T20:12:30.627Z,99.90
2018-01-15T20:14:59.732Z,99.90
2018-01-15T20:17:28.076Z,99.90
2018-01-15T20:19:56.465Z,99.90
2018-01-15T20:22:25.561Z,99.90
2018-01-15T20:24:54.840Z,99.90
2018-01-15T20:27:23.198Z,99.90
2018-01-15T20:29:51.538Z,99.90
2018-01-15T20:32:19.894Z,99.90
2018-01-15T20:34:49.014Z,99.90
2018-01-15T20:37:17.351Z,99.90
2018-01-15T20:39:45.786Z,99.90
2018-01-15T20:42:14.110Z,99.90
2018-01-15T20:44:42.456Z,99.90
2018-01-15T20:47:10.796Z,99.90
2018-01-15T20:49:39.158Z,99.90
2018-01-15T20:52:08.279Z,99.90
2018-01-15T20:54:36.644Z,99.90
2018-01-15T20:57:04.976Z,99.90
2018-01-15T20:59:33.320Z,99.90
2018-01-15T21:02:01.673Z,99.90
2018-01-15T21:04:30.772Z,99.90
2018-01-15T21:06:59.941Z,99.90
2018-01-15T21:09:28.321Z,99.90
2018-01-15T21:11:56.688Z,99.90
2018-01-15T21:14:25.015Z,99.90
2018-01-15T21:16:53.370Z,99.90
2018-01-15T21:19:21.920Z,99.90
2018-01-15T21:21:50.263Z,99.90
2018-01-15T21:24:18.607Z,99.90
2018-01-15T21:26:46.938Z,99.90
2018-01-15T21:29:15.296Z,99.90
2018-01-15T21:31:43.635Z,99.90
2018-01-15T21:34:11.977Z,99.90
2018-01-15T21:36:40.343Z,99.90
2018-01-15T21:39:08.675Z,99.90
2018-01-15T21:41:37.051Z,99.90
2018-01-15T21:44:05.375Z,99.90
2018-01-15T21:46:33.789Z,99.90
2018-01-15T21:49:02.127Z,99.90
2018-01-15T21:51:30.455Z,99.90
2018-01-15T21:53:58.954Z,99.90
2018-01-15T21:56:27.279Z,99.90
2018-01-15T21:58:55.716Z,99.90
2018-01-15T22:01:24.101Z,99.90
2018-01-15T22:03:52.441Z,99.90
2018-01-15T22:06:20.767Z,99.90
2018-01-15T22:08:49.871Z,99.90
2018-01-15T22:11:18.203Z,99.90
2018-01-15T22:13:46.538Z,99.90
2018-01-15T22:16:14.876Z,99.90
2018-01-15T22:18:43.199Z,99.90
2018-01-15T22:21:11.570Z,99.90
2018-01-15T22:23:40.548Z,99.90
2018-01-15T22:26:08.851Z,99.90
2018-01-15T22:28:37.195Z,99.90
2018-01-15T22:31:06.313Z,99.90
2018-01-15T22:33:34.715Z,99.90
2018-01-15T22:36:03.034Z,99.90
2018-01-15T22:38:31.375Z,99.90
2018-01-15T22:40:59.764Z,99.90
2018-01-15T22:43:28.082Z,99.90
2018-01-15T22:45:57.429Z,99.90
2018-01-15T22:48:25.752Z,99.90
2018-01-15T22:50:54.110Z,99.90
2018-01-15T22:53:22.465Z,99.90
2018-01-15T22:55:50.811Z,99.90
2018-01-15T22:58:19.927Z,99.90
2018-01-15T23:00:48.260Z,99.90
2018-01-15T23:03:16.592Z,99.90
2018-01-15T23:08:20.371Z,99.90
2018-01-15T23:10:48.682Z,99.90
2018-01-15T23:13:17.037Z,99.90
2018-01-15T23:15:46.152Z,99.90
2018-01-15T23:18:14.480Z,99.90
2018-01-15T23:20:42.820Z,99.90
2018-01-15T23:23:11.157Z,99.90
2018-01-15T23:25:39.495Z,99.90
2018-01-15T23:28:07.819Z,99.90
2018-01-15T23:30:37.061Z,99.90
2018-01-15T23:33:05.396Z,99.90
2018-01-15T23:35:33.718Z,99.90
2018-01-15T23:38:02.072Z,99.90
2018-01-15T23:40:31.143Z,99.90
2018-01-15T23:42:59.556Z,99.90
2018-01-15T23:45:27.887Z,99.90
2018-01-15T23:47:56.239Z,99.90
2018-01-15T23:50:24.616Z,99.90
2018-01-15T23:52:53.156Z,99.90
2018-01-15T23:55:21.479Z,99.90
2018-01-15T23:57:49.814Z,99.90
